sensor_id;sensor_type;location;lat;lon;timestamp;pressure;altitude;pressure_sealevel;temperature;humidity
11643;BME280;5877;50.930;6.918;2023-01-27T00:02:37;101653.38;;;3.33;84.79
11643;BME280;5877;50.930;6.918;2023-01-27T00:07:29;101653.38;;;3.23;85.37
11643;BME280;5877;50.930;6.918;2023-01-27T00:12:23;101650.38;;;3.18;85.16
11643;BME280;5877;50.930;6.918;2023-01-27T00:17:34;101601.94;;;2.80;85.23
11643;BME280;5877;50.930;6.918;2023-01-27T00:22:26;101510.16;;;2.15;84.97
11643;BME280;5877;50.930;6.918;2023-01-27T00:27:36;101608.63;;;2.73;85.14
11643;BME280;5877;50.930;6.918;2023-01-27T00:32:27;101555.84;;;2.36;85.40
11643;BME280;5877;50.930;6.918;2023-01-27T00:37:38;101658.72;;;2.93;85.84
11643;BME280;5877;50.930;6.918;2023-01-27T00:42:30;101610.00;;;2.58;85.56
11643;BME280;5877;50.930;6.918;2023-01-27T00:47:22;101665.25;;;3.07;85.80
11643;BME280;5877;50.930;6.918;2023-01-27T00:52:13;101666.22;;;3.15;85.69
11643;BME280;5877;50.930;6.918;2023-01-27T00:57:06;101674.28;;;3.22;84.78
11643;BME280;5877;50.930;6.918;2023-01-27T01:01:58;101612.59;;;2.87;84.14
11643;BME280;5877;50.930;6.918;2023-01-27T01:06:49;101603.84;;;2.88;83.65
11643;BME280;5877;50.930;6.918;2023-01-27T01:11:42;101681.22;;;3.21;83.91
11643;BME280;5877;50.930;6.918;2023-01-27T01:16:33;101604.53;;;2.80;83.76
11643;BME280;5877;50.930;6.918;2023-01-27T01:21:25;101687.78;;;3.35;82.57
11643;BME280;5877;50.930;6.918;2023-01-27T01:26:17;101648.19;;;3.14;82.13
11643;BME280;5877;50.930;6.918;2023-01-27T01:31:11;101619.25;;;2.99;80.90
11643;BME280;5877;50.930;6.918;2023-01-27T01:36:09;101701.03;;;3.42;80.43
11643;BME280;5877;50.930;6.918;2023-01-27T01:41:01;101634.28;;;2.96;79.48
11643;BME280;5877;50.930;6.918;2023-01-27T01:45:54;101645.06;;;3.01;79.54
11643;BME280;5877;50.930;6.918;2023-01-27T01:50:50;101686.97;;;3.35;79.39
11643;BME280;5877;50.930;6.918;2023-01-27T01:55:44;101682.03;;;3.41;76.21
11643;BME280;5877;50.930;6.918;2023-01-27T02:00:36;101557.88;;;2.61;76.32
11643;BME280;5877;50.930;6.918;2023-01-27T02:05:31;101650.78;;;3.14;76.63
11643;BME280;5877;50.930;6.918;2023-01-27T02:10:23;101705.53;;;3.49;77.09
11643;BME280;5877;50.930;6.918;2023-01-27T02:15:16;101616.81;;;2.98;76.52
11643;BME280;5877;50.930;6.918;2023-01-27T02:20:36;101704.97;;;3.55;76.55
11643;BME280;5877;50.930;6.918;2023-01-27T02:30:24;101705.53;;;3.49;76.95
11643;BME280;5877;50.930;6.918;2023-01-27T02:35:23;101709.22;;;3.47;77.35
11643;BME280;5877;50.930;6.918;2023-01-27T02:40:17;101611.63;;;2.78;77.88
11643;BME280;5877;50.930;6.918;2023-01-27T02:45:09;101656.25;;;2.91;78.68
11643;BME280;5877;50.930;6.918;2023-01-27T02:50:01;101682.72;;;3.05;79.06
11643;BME280;5877;50.930;6.918;2023-01-27T02:54:53;101715.63;;;3.33;78.99
11643;BME280;5877;50.930;6.918;2023-01-27T02:59:45;101686.69;;;3.18;78.45
11643;BME280;5877;50.930;6.918;2023-01-27T03:04:36;101718.91;;;3.35;78.39
11643;BME280;5877;50.930;6.918;2023-01-27T03:09:29;101719.19;;;3.32;76.95
11643;BME280;5877;50.930;6.918;2023-01-27T03:14:21;101672.22;;;3.06;76.03
11643;BME280;5877;50.930;6.918;2023-01-27T03:19:12;101523.91;;;2.16;75.39
11643;BME280;5877;50.930;6.918;2023-01-27T03:24:05;101731.63;;;3.38;75.19
11643;BME280;5877;50.930;6.918;2023-01-27T03:28:58;101719.72;;;3.36;74.81
11643;BME280;5877;50.930;6.918;2023-01-27T03:34:08;101674.94;;;3.05;74.94
11643;BME280;5877;50.930;6.918;2023-01-27T03:39:05;101632.78;;;2.74;75.18
11643;BME280;5877;50.930;6.918;2023-01-27T03:44:15;101642.47;;;2.81;74.19
11643;BME280;5877;50.930;6.918;2023-01-27T03:49:26;101734.22;;;3.38;74.25
11643;BME280;5877;50.930;6.918;2023-01-27T03:54:17;101657.19;;;2.90;74.56
11643;BME280;5877;50.930;6.918;2023-01-27T03:59:10;101730.25;;;3.34;74.17
11643;BME280;5877;50.930;6.918;2023-01-27T04:04:02;101628.66;;;2.61;74.68
11643;BME280;5877;50.930;6.918;2023-01-27T04:09:17;101732.69;;;3.26;75.26
11643;BME280;5877;50.930;6.918;2023-01-27T04:14:10;101714.53;;;3.07;75.54
11643;BME280;5877;50.930;6.918;2023-01-27T04:19:04;101734.75;;;3.22;75.49
11643;BME280;5877;50.930;6.918;2023-01-27T04:23:56;101726.16;;;3.22;75.82
11643;BME280;5877;50.930;6.918;2023-01-27T04:28:49;101733.38;;;3.18;75.87
11643;BME280;5877;50.930;6.918;2023-01-27T04:33:41;101702.91;;;2.91;76.61
11643;BME280;5877;50.930;6.918;2023-01-27T04:38:34;101713.44;;;2.90;77.40
11643;BME280;5877;50.930;6.918;2023-01-27T04:43:25;101636.56;;;2.41;77.18
11643;BME280;5877;50.930;6.918;2023-01-27T04:48:17;101664.00;;;2.53;76.92
11643;BME280;5877;50.930;6.918;2023-01-27T04:53:09;101747.56;;;3.05;76.91
11643;BME280;5877;50.930;6.918;2023-01-27T04:58:00;101626.31;;;2.30;77.65
11643;BME280;5877;50.930;6.918;2023-01-27T05:02:52;101758.78;;;3.15;77.08
11643;BME280;5877;50.930;6.918;2023-01-27T05:07:43;101714.66;;;2.86;77.92
11643;BME280;5877;50.930;6.918;2023-01-27T05:12:35;101762.72;;;3.09;77.66
11643;BME280;5877;50.930;6.918;2023-01-27T05:17:31;101765.31;;;3.09;77.11
11643;BME280;5877;50.930;6.918;2023-01-27T05:22:23;101676.53;;;2.48;76.99
11643;BME280;5877;50.930;6.918;2023-01-27T05:27:15;101700.13;;;2.64;77.33
11643;BME280;5877;50.930;6.918;2023-01-27T05:32:07;101727.75;;;2.84;77.34
11643;BME280;5877;50.930;6.918;2023-01-27T05:36:59;101776.25;;;3.13;77.45
11643;BME280;5877;50.930;6.918;2023-01-27T05:41:51;101772.16;;;3.10;77.49
11643;BME280;5877;50.930;6.918;2023-01-27T05:46:42;101780.63;;;3.12;77.22
11643;BME280;5877;50.930;6.918;2023-01-27T05:51:36;101785.13;;;3.10;77.36
11643;BME280;5877;50.930;6.918;2023-01-27T05:56:30;101788.69;;;3.19;77.29
11643;BME280;5877;50.930;6.918;2023-01-27T06:01:25;101721.97;;;2.71;78.02
11643;BME280;5877;50.930;6.918;2023-01-27T06:06:19;101725.13;;;2.75;77.93
11643;BME280;5877;50.930;6.918;2023-01-27T06:11:12;101706.28;;;2.63;77.72
11643;BME280;5877;50.930;6.918;2023-01-27T06:16:06;101673.91;;;2.38;77.92
11643;BME280;5877;50.930;6.918;2023-01-27T06:20:59;101793.03;;;3.18;77.61
11643;BME280;5877;50.930;6.918;2023-01-27T06:25:52;101794.13;;;3.16;78.40
11643;BME280;5877;50.930;6.918;2023-01-27T06:30:44;101672.72;;;2.42;78.46
11643;BME280;5877;50.930;6.918;2023-01-27T06:35:37;101799.88;;;3.19;78.13
11643;BME280;5877;50.930;6.918;2023-01-27T06:40:31;101786.06;;;3.09;78.51
11643;BME280;5877;50.930;6.918;2023-01-27T06:45:23;101805.47;;;3.24;78.83
11643;BME280;5877;50.930;6.918;2023-01-27T06:50:14;101740.84;;;2.83;78.82
11643;BME280;5877;50.930;6.918;2023-01-27T06:55:07;101768.16;;;2.97;78.77
11643;BME280;5877;50.930;6.918;2023-01-27T06:59:59;101751.91;;;2.85;78.35
11643;BME280;5877;50.930;6.918;2023-01-27T07:04:50;101722.13;;;2.70;78.46
11643;BME280;5877;50.930;6.918;2023-01-27T07:09:42;101820.25;;;3.34;78.47
11643;BME280;5877;50.930;6.918;2023-01-27T07:14:43;101697.56;;;2.54;77.80
11643;BME280;5877;50.930;6.918;2023-01-27T07:19:34;101814.78;;;3.27;77.78
11643;BME280;5877;50.930;6.918;2023-01-27T07:24:26;101801.91;;;3.16;78.06
11643;BME280;5877;50.930;6.918;2023-01-27T07:29:18;101792.75;;;3.12;78.06
11643;BME280;5877;50.930;6.918;2023-01-27T07:34:09;101759.84;;;2.93;77.26
11643;BME280;5877;50.930;6.918;2023-01-27T07:39:01;101842.94;;;3.51;77.74
11643;BME280;5877;50.930;6.918;2023-01-27T07:43:53;101853.59;;;3.57;77.21
11643;BME280;5877;50.930;6.918;2023-01-27T07:48:46;101809.72;;;3.35;77.27
11643;BME280;5877;50.930;6.918;2023-01-27T07:53:38;101824.78;;;3.61;76.59
11643;BME280;5877;50.930;6.918;2023-01-27T07:58:30;101690.25;;;3.17;76.04
11643;BME280;5877;50.930;6.918;2023-01-27T08:03:24;101857.66;;;4.28;74.13
11643;BME280;5877;50.930;6.918;2023-01-27T08:08:16;101848.94;;;4.09;74.46
11643;BME280;5877;50.930;6.918;2023-01-27T08:13:09;101768.06;;;3.37;74.48
11643;BME280;5877;50.930;6.918;2023-01-27T08:18:00;101862.22;;;3.97;74.19
11643;BME280;5877;50.930;6.918;2023-01-27T08:22:52;101664.56;;;2.85;74.27
11643;BME280;5877;50.930;6.918;2023-01-27T08:27:44;101743.91;;;3.46;73.87
11643;BME280;5877;50.930;6.918;2023-01-27T08:32:35;101859.72;;;4.34;74.05
11643;BME280;5877;50.930;6.918;2023-01-27T08:37:27;101841.13;;;4.29;72.98
11643;BME280;5877;50.930;6.918;2023-01-27T08:42:19;101873.34;;;4.55;72.29
11643;BME280;5877;50.930;6.918;2023-01-27T08:47:12;101784.97;;;3.99;72.77
11643;BME280;5877;50.930;6.918;2023-01-27T08:52:03;101829.66;;;4.21;72.97
11643;BME280;5877;50.930;6.918;2023-01-27T08:56:55;101762.69;;;3.96;72.69
11643;BME280;5877;50.930;6.918;2023-01-27T09:01:46;101869.41;;;4.88;72.16
11643;BME280;5877;50.930;6.918;2023-01-27T09:06:38;101774.78;;;4.89;69.43
11643;BME280;5877;50.930;6.918;2023-01-27T09:11:30;101776.53;;;5.16;68.35
11643;BME280;5877;50.930;6.918;2023-01-27T09:16:21;101871.69;;;6.43;66.83
11643;BME280;5877;50.930;6.918;2023-01-27T09:21:13;101871.81;;;6.59;65.20
11643;BME280;5877;50.930;6.918;2023-01-27T09:26:05;101796.88;;;5.74;66.43
11643;BME280;5877;50.930;6.918;2023-01-27T09:30:57;101747.38;;;4.95;67.94
11643;BME280;5877;50.930;6.918;2023-01-27T09:36:11;101588.56;;;3.61;68.89
11643;BME280;5877;50.930;6.918;2023-01-27T09:46:38;101869.56;;;5.32;69.32
11643;BME280;5877;50.930;6.918;2023-01-27T09:56:45;101908.03;;;6.18;66.61
11643;BME280;5877;50.930;6.918;2023-01-27T10:01:56;101912.91;;;6.39;66.18
11643;BME280;5877;50.930;6.918;2023-01-27T10:07:33;101918.75;;;6.59;65.15
11643;BME280;5877;50.930;6.918;2023-01-27T10:17:42;101918.34;;;6.46;65.16
11643;BME280;5877;50.930;6.918;2023-01-27T10:28:05;101917.31;;;6.39;65.14
11643;BME280;5877;50.930;6.918;2023-01-27T10:33:09;101918.09;;;6.57;65.92
11643;BME280;5877;50.930;6.918;2023-01-27T10:39:05;101880.59;;;6.58;64.50
11643;BME280;5877;50.930;6.918;2023-01-27T10:43:51;101883.97;;;6.25;65.49
11643;BME280;5877;50.930;6.918;2023-01-27T10:48:51;101852.56;;;5.55;66.59
11643;BME280;5877;50.930;6.918;2023-01-27T10:58:59;101868.56;;;5.78;66.95
11643;BME280;5877;50.930;6.918;2023-01-27T11:09:24;101909.09;;;6.77;64.05
11643;BME280;5877;50.930;6.918;2023-01-27T11:14:28;101843.69;;;6.45;63.68
11643;BME280;5877;50.930;6.918;2023-01-27T11:19:36;101880.94;;;6.63;63.79
11643;BME280;5877;50.930;6.918;2023-01-27T11:29:41;101907.13;;;7.13;63.63
11643;BME280;5877;50.930;6.918;2023-01-27T11:34:47;101889.22;;;7.19;62.69
11643;BME280;5877;50.930;6.918;2023-01-27T11:39:43;101871.84;;;7.01;63.64
11643;BME280;5877;50.930;6.918;2023-01-27T11:44:35;101808.63;;;6.81;62.91
11643;BME280;5877;50.930;6.918;2023-01-27T11:49:32;101864.91;;;7.26;62.33
11643;BME280;5877;50.930;6.918;2023-01-27T11:54:26;101716.38;;;6.06;62.93
11643;BME280;5877;50.930;6.918;2023-01-27T11:59:22;101888.00;;;7.05;63.28
11643;BME280;5877;50.930;6.918;2023-01-27T12:09:36;101879.25;;;7.22;62.55
11643;BME280;5877;50.930;6.918;2023-01-27T12:14:28;101884.69;;;7.29;61.72
11643;BME280;5877;50.930;6.918;2023-01-27T12:19:26;101802.00;;;6.53;63.38
11643;BME280;5877;50.930;6.918;2023-01-27T12:24:34;101856.06;;;7.11;62.27
11643;BME280;5877;50.930;6.918;2023-01-27T12:29:27;101877.16;;;7.26;61.48
11643;BME280;5877;50.930;6.918;2023-01-27T12:34:34;101855.00;;;6.88;61.54
11643;BME280;5877;50.930;6.918;2023-01-27T12:44:42;101795.22;;;6.34;62.38
11643;BME280;5877;50.930;6.918;2023-01-27T12:49:36;101797.56;;;6.45;62.31
11643;BME280;5877;50.930;6.918;2023-01-27T12:54:31;101849.50;;;6.99;62.00
11643;BME280;5877;50.930;6.918;2023-01-27T12:59:24;101842.63;;;6.98;61.49
11643;BME280;5877;50.930;6.918;2023-01-27T13:04:19;101833.06;;;6.72;61.19
11643;BME280;5877;50.930;6.918;2023-01-27T13:14:31;101860.56;;;6.59;62.48
11643;BME280;5877;50.930;6.918;2023-01-27T13:19:36;101829.97;;;6.17;64.33
11643;BME280;5877;50.930;6.918;2023-01-27T13:24:35;101779.78;;;5.89;63.85
11643;BME280;5877;50.930;6.918;2023-01-27T13:29:33;101788.09;;;5.93;64.06
11643;BME280;5877;50.930;6.918;2023-01-27T13:39:40;101810.38;;;5.69;65.26
11643;BME280;5877;50.930;6.918;2023-01-27T13:45:36;101881.97;;;6.01;65.18
11643;BME280;5877;50.930;6.918;2023-01-27T13:55:13;101806.63;;;5.36;65.81
11643;BME280;5877;50.930;6.918;2023-01-27T14:00:44;101884.28;;;6.04;65.72
11643;BME280;5877;50.930;6.918;2023-01-27T14:05:40;101817.88;;;5.72;65.03
11643;BME280;5877;50.930;6.918;2023-01-27T14:10:39;101889.44;;;5.96;65.71
11643;BME280;5877;50.930;6.918;2023-01-27T14:15:51;101873.03;;;5.85;65.71
11643;BME280;5877;50.930;6.918;2023-01-27T14:26:13;101903.44;;;5.95;66.09
11643;BME280;5877;50.930;6.918;2023-01-27T14:31:17;101904.63;;;6.00;65.75
11643;BME280;5877;50.930;6.918;2023-01-27T14:36:24;101839.06;;;5.42;65.84
11643;BME280;5877;50.930;6.918;2023-01-27T14:41:33;101908.53;;;5.86;65.90
11643;BME280;5877;50.930;6.918;2023-01-27T14:51:45;101863.13;;;5.53;66.02
11643;BME280;5877;50.930;6.918;2023-01-27T15:02:29;101827.53;;;5.09;65.38
11643;BME280;5877;50.930;6.918;2023-01-27T15:13:02;101864.97;;;4.98;65.17
11643;BME280;5877;50.930;6.918;2023-01-27T15:28:32;101830.00;;;4.46;66.39
11643;BME280;5877;50.930;6.918;2023-01-27T15:33:53;101954.75;;;5.12;66.10
11643;BME280;5877;50.930;6.918;2023-01-27T15:49:16;101941.03;;;4.73;67.08
11643;BME280;5877;50.930;6.918;2023-01-27T15:54:16;101986.69;;;5.04;66.44
11643;BME280;5877;50.930;6.918;2023-01-27T15:59:22;101896.91;;;4.44;65.76
11643;BME280;5877;50.930;6.918;2023-01-27T16:04:20;101985.75;;;4.96;65.82
11643;BME280;5877;50.930;6.918;2023-01-27T16:14:25;101827.91;;;3.83;66.30
11643;BME280;5877;50.930;6.918;2023-01-27T16:19:29;102000.97;;;4.91;65.73
11643;BME280;5877;50.930;6.918;2023-01-27T16:24:30;102011.25;;;4.82;66.11
11643;BME280;5877;50.930;6.918;2023-01-27T16:29:32;102018.38;;;4.80;66.69
11643;BME280;5877;50.930;6.918;2023-01-27T16:34:55;102021.38;;;4.76;67.03
11643;BME280;5877;50.930;6.918;2023-01-27T16:40:12;102023.31;;;4.74;67.13
11643;BME280;5877;50.930;6.918;2023-01-27T16:45:21;101997.88;;;4.58;66.87
11643;BME280;5877;50.930;6.918;2023-01-27T16:55:25;101964.50;;;4.24;68.52
11643;BME280;5877;50.930;6.918;2023-01-27T17:00:20;102040.00;;;4.62;68.77
11643;BME280;5877;50.930;6.918;2023-01-27T17:05:15;101954.78;;;3.98;70.05
11643;BME280;5877;50.930;6.918;2023-01-27T17:10:13;102042.88;;;4.39;70.50
11643;BME280;5877;50.930;6.918;2023-01-27T17:15:34;102013.19;;;4.13;70.07
11643;BME280;5877;50.930;6.918;2023-01-27T17:20:29;102061.22;;;4.47;69.27
11643;BME280;5877;50.930;6.918;2023-01-27T17:25:32;101958.56;;;3.74;70.16
11643;BME280;5877;50.930;6.918;2023-01-27T17:30:32;102059.97;;;4.42;69.99
11643;BME280;5877;50.930;6.918;2023-01-27T17:35:34;101974.84;;;3.76;70.38
11643;BME280;5877;50.930;6.918;2023-01-27T17:40:26;102041.22;;;4.19;69.55
11643;BME280;5877;50.930;6.918;2023-01-27T17:50:22;102023.00;;;4.09;69.35
11643;BME280;5877;50.930;6.918;2023-01-27T17:55:16;102084.19;;;4.42;68.97
11643;BME280;5877;50.930;6.918;2023-01-27T18:00:29;102074.88;;;4.30;70.14
11643;BME280;5877;50.930;6.918;2023-01-27T18:05:26;102034.34;;;4.08;69.68
11643;BME280;5877;50.930;6.918;2023-01-27T18:20:29;102016.28;;;3.47;71.82
11643;BME280;5877;50.930;6.918;2023-01-27T18:25:21;102078.31;;;3.81;72.28
11643;BME280;5877;50.930;6.918;2023-01-27T18:30:15;101983.25;;;3.19;72.69
11643;BME280;5877;50.930;6.918;2023-01-27T18:35:28;102096.09;;;3.85;72.97
11643;BME280;5877;50.930;6.918;2023-01-27T18:40:27;102092.34;;;4.09;72.45
11643;BME280;5877;50.930;6.918;2023-01-27T18:45:19;102099.72;;;4.13;71.53
11643;BME280;5877;50.930;6.918;2023-01-27T18:50:16;102106.88;;;4.21;71.20
11643;BME280;5877;50.930;6.918;2023-01-27T19:00:15;102050.69;;;3.80;70.23
11643;BME280;5877;50.930;6.918;2023-01-27T19:05:23;102100.97;;;4.19;69.63
11643;BME280;5877;50.930;6.918;2023-01-27T19:10:19;102089.72;;;3.99;69.99
11643;BME280;5877;50.930;6.918;2023-01-27T19:15:15;102086.97;;;4.01;69.27
11643;BME280;5877;50.930;6.918;2023-01-27T19:20:18;102105.22;;;4.20;68.99
11643;BME280;5877;50.930;6.918;2023-01-27T19:25:11;102026.59;;;3.68;69.58
11643;BME280;5877;50.930;6.918;2023-01-27T19:35:16;102114.25;;;4.26;69.79
11643;BME280;5877;50.930;6.918;2023-01-27T19:40:15;102058.94;;;3.95;69.97
11643;BME280;5877;50.930;6.918;2023-01-27T19:45:10;102116.69;;;4.17;70.41
11643;BME280;5877;50.930;6.918;2023-01-27T19:50:04;102070.16;;;3.95;69.35
11643;BME280;5877;50.930;6.918;2023-01-27T19:54:56;102112.88;;;4.21;69.56
11643;BME280;5877;50.930;6.918;2023-01-27T19:59:48;102121.22;;;4.15;70.13
11643;BME280;5877;50.930;6.918;2023-01-27T20:04:40;102113.53;;;4.04;70.89
11643;BME280;5877;50.930;6.918;2023-01-27T20:09:31;102106.25;;;3.98;71.34
11643;BME280;5877;50.930;6.918;2023-01-27T20:14:23;102106.09;;;3.90;71.56
11643;BME280;5877;50.930;6.918;2023-01-27T20:19:16;102145.56;;;4.14;71.54
11643;BME280;5877;50.930;6.918;2023-01-27T20:24:13;102011.94;;;3.27;71.66
11643;BME280;5877;50.930;6.918;2023-01-27T20:29:05;102148.97;;;4.15;68.61
11643;BME280;5877;50.930;6.918;2023-01-27T20:33:58;102053.69;;;3.45;67.99
11643;BME280;5877;50.930;6.918;2023-01-27T20:38:50;102018.19;;;3.15;68.15
11643;BME280;5877;50.930;6.918;2023-01-27T20:43:42;102148.50;;;4.00;68.23
11643;BME280;5877;50.930;6.918;2023-01-27T20:48:34;102105.88;;;3.72;68.24
11643;BME280;5877;50.930;6.918;2023-01-27T20:53:26;102046.13;;;3.32;68.00
11643;BME280;5877;50.930;6.918;2023-01-27T20:58:21;102154.66;;;3.99;67.89
11643;BME280;5877;50.930;6.918;2023-01-27T21:03:13;102089.34;;;3.43;68.37
11643;BME280;5877;50.930;6.918;2023-01-27T21:08:05;102128.63;;;3.59;68.94
11643;BME280;5877;50.930;6.918;2023-01-27T21:12:57;102127.84;;;3.68;68.22
11643;BME280;5877;50.930;6.918;2023-01-27T21:17:48;102123.88;;;3.64;67.62
11643;BME280;5877;50.930;6.918;2023-01-27T21:22:46;102168.03;;;3.95;67.79
11643;BME280;5877;50.930;6.918;2023-01-27T21:27:47;102170.47;;;3.86;67.84
11643;BME280;5877;50.930;6.918;2023-01-27T21:32:40;102160.19;;;3.85;68.02
11643;BME280;5877;50.930;6.918;2023-01-27T21:37:32;102113.75;;;3.61;67.50
11643;BME280;5877;50.930;6.918;2023-01-27T21:42:26;102116.41;;;3.50;67.54
11643;BME280;5877;50.930;6.918;2023-01-27T21:47:41;102159.75;;;3.80;67.77
11643;BME280;5877;50.930;6.918;2023-01-27T21:52:40;102159.50;;;3.83;67.52
11643;BME280;5877;50.930;6.918;2023-01-27T21:57:37;102167.28;;;3.83;67.41
11643;BME280;5877;50.930;6.918;2023-01-27T22:02:29;102072.31;;;3.29;67.44
11643;BME280;5877;50.930;6.918;2023-01-27T22:07:22;102161.34;;;3.71;68.14
11643;BME280;5877;50.930;6.918;2023-01-27T22:12:19;102023.81;;;2.78;68.67
11643;BME280;5877;50.930;6.918;2023-01-27T22:17:19;102171.31;;;3.66;68.48
11643;BME280;5877;50.930;6.918;2023-01-27T22:22:12;102118.28;;;3.38;67.95
11643;BME280;5877;50.930;6.918;2023-01-27T22:27:05;102087.72;;;3.21;67.88
11643;BME280;5877;50.930;6.918;2023-01-27T22:31:57;102157.19;;;3.59;68.03
11643;BME280;5877;50.930;6.918;2023-01-27T22:36:48;102130.28;;;3.39;68.17
11643;BME280;5877;50.930;6.918;2023-01-27T22:41:40;102067.91;;;2.99;67.42
11643;BME280;5877;50.930;6.918;2023-01-27T22:46:32;102160.28;;;3.74;68.63
11643;BME280;5877;50.930;6.918;2023-01-27T22:51:23;102159.28;;;3.65;67.84
11643;BME280;5877;50.930;6.918;2023-01-27T22:56:15;102083.59;;;2.98;67.73
11643;BME280;5877;50.930;6.918;2023-01-27T23:01:07;102158.34;;;3.45;67.62
11643;BME280;5877;50.930;6.918;2023-01-27T23:06:05;102158.59;;;3.42;68.53
11643;BME280;5877;50.930;6.918;2023-01-27T23:11:03;102026.00;;;2.62;68.25
11643;BME280;5877;50.930;6.918;2023-01-27T23:15:55;102067.50;;;2.62;68.14
11643;BME280;5877;50.930;6.918;2023-01-27T23:35:58;102146.28;;;3.03;68.11
11643;BME280;5877;50.930;6.918;2023-01-27T23:40:50;102138.00;;;2.77;68.34
11643;BME280;5877;50.930;6.918;2023-01-27T23:45:52;102172.44;;;2.68;69.34
11643;BME280;5877;50.930;6.918;2023-01-27T23:50:44;102054.28;;;1.68;70.18
11643;BME280;5877;50.930;6.918;2023-01-27T23:55:36;102064.41;;;1.71;70.70
